sensor_id;sensor_type;location;lat;lon;timestamp;temperature;humidity
4813;DHT22;2420;51.202;8.698;2024-03-25T00:01:12;3.20;1.00
4813;DHT22;2420;51.202;8.698;2024-03-25T00:03:37;3.10;1.00
4813;DHT22;2420;51.202;8.698;2024-03-25T00:06:03;3.10;1.00
4813;DHT22;2420;51.202;8.698;2024-03-25T00:08:30;3.20;1.00
4813;DHT22;2420;51.202;8.698;2024-03-25T00:10:55;3.10;1.00
4813;DHT22;2420;51.202;8.698;2024-03-25T00:13:21;3.30;1.00
4813;DHT22;2420;51.202;8.698;2024-03-25T00:15:47;3.00;1.00
4813;DHT22;2420;51.202;8.698;2024-03-25T00:18:12;3.10;1.00
4813;DHT22;2420;51.202;8.698;2024-03-25T00:20:38;3.00;1.00
4813;DHT22;2420;51.202;8.698;2024-03-25T00:23:04;3.20;1.00
4813;DHT22;2420;51.202;8.698;2024-03-25T00:25:30;3.00;1.00
4813;DHT22;2420;51.202;8.698;2024-03-25T00:27:55;2.90;1.00
4813;DHT22;2420;51.202;8.698;2024-03-25T00:30:22;3.00;1.00
4813;DHT22;2420;51.202;8.698;2024-03-25T00:32:47;3.00;1.00
4813;DHT22;2420;51.202;8.698;2024-03-25T00:35:13;2.90;1.00
4813;DHT22;2420;51.202;8.698;2024-03-25T00:37:38;3.00;1.00
4813;DHT22;2420;51.202;8.698;2024-03-25T00:40:04;3.10;1.00
4813;DHT22;2420;51.202;8.698;2024-03-25T00:42:32;3.00;1.00
4813;DHT22;2420;51.202;8.698;2024-03-25T00:44:58;2.90;1.00
4813;DHT22;2420;51.202;8.698;2024-03-25T00:47:23;3.00;1.00
4813;DHT22;2420;51.202;8.698;2024-03-25T00:49:49;3.00;1.00
4813;DHT22;2420;51.202;8.698;2024-03-25T00:52:15;3.10;1.00
4813;DHT22;2420;51.202;8.698;2024-03-25T00:54:40;2.90;1.00
4813;DHT22;2420;51.202;8.698;2024-03-25T00:57:06;2.80;1.00
4813;DHT22;2420;51.202;8.698;2024-03-25T00:59:31;2.80;1.00
4813;DHT22;2420;51.202;8.698;2024-03-25T01:01:57;3.00;1.00
4813;DHT22;2420;51.202;8.698;2024-03-25T01:04:23;2.90;1.00
4813;DHT22;2420;51.202;8.698;2024-03-25T01:06:48;3.00;1.00
4813;DHT22;2420;51.202;8.698;2024-03-25T01:09:14;2.80;1.00
4813;DHT22;2420;51.202;8.698;2024-03-25T01:11:39;2.90;1.00
4813;DHT22;2420;51.202;8.698;2024-03-25T01:14:05;3.00;1.00
4813;DHT22;2420;51.202;8.698;2024-03-25T01:16:31;3.00;1.00
4813;DHT22;2420;51.202;8.698;2024-03-25T01:18:57;2.90;1.00
4813;DHT22;2420;51.202;8.698;2024-03-25T01:21:24;3.00;1.00
4813;DHT22;2420;51.202;8.698;2024-03-25T01:23:50;3.10;1.00
4813;DHT22;2420;51.202;8.698;2024-03-25T01:26:15;3.20;1.00
4813;DHT22;2420;51.202;8.698;2024-03-25T01:28:42;3.00;1.00
4813;DHT22;2420;51.202;8.698;2024-03-25T01:31:08;3.20;1.00
4813;DHT22;2420;51.202;8.698;2024-03-25T01:33:34;3.20;1.00
4813;DHT22;2420;51.202;8.698;2024-03-25T01:36:00;3.20;1.00
4813;DHT22;2420;51.202;8.698;2024-03-25T01:38:25;3.10;1.00
4813;DHT22;2420;51.202;8.698;2024-03-25T01:40:51;3.10;1.00
4813;DHT22;2420;51.202;8.698;2024-03-25T01:43:17;3.30;1.00
4813;DHT22;2420;51.202;8.698;2024-03-25T01:45:42;3.20;1.00
4813;DHT22;2420;51.202;8.698;2024-03-25T01:48:09;3.50;1.00
4813;DHT22;2420;51.202;8.698;2024-03-25T01:50:41;3.20;1.00
4813;DHT22;2420;51.202;8.698;2024-03-25T01:53:08;3.30;1.00
4813;DHT22;2420;51.202;8.698;2024-03-25T01:55:35;3.20;1.00
4813;DHT22;2420;51.202;8.698;2024-03-25T01:58:04;3.30;1.00
4813;DHT22;2420;51.202;8.698;2024-03-25T02:00:31;3.20;1.00
4813;DHT22;2420;51.202;8.698;2024-03-25T02:02:57;3.40;1.00
4813;DHT22;2420;51.202;8.698;2024-03-25T02:05:23;3.30;1.00
4813;DHT22;2420;51.202;8.698;2024-03-25T02:07:49;3.40;1.00
4813;DHT22;2420;51.202;8.698;2024-03-25T02:10:15;3.40;1.00
4813;DHT22;2420;51.202;8.698;2024-03-25T02:12:44;3.30;1.00
4813;DHT22;2420;51.202;8.698;2024-03-25T02:15:11;3.30;1.00
4813;DHT22;2420;51.202;8.698;2024-03-25T02:17:38;3.40;1.00
4813;DHT22;2420;51.202;8.698;2024-03-25T02:20:05;3.20;1.00
4813;DHT22;2420;51.202;8.698;2024-03-25T02:22:35;3.30;1.00
4813;DHT22;2420;51.202;8.698;2024-03-25T02:25:05;3.10;1.00
4813;DHT22;2420;51.202;8.698;2024-03-25T02:27:31;3.00;1.00
4813;DHT22;2420;51.202;8.698;2024-03-25T02:30:08;3.10;1.00
4813;DHT22;2420;51.202;8.698;2024-03-25T02:32:35;3.30;1.00
4813;DHT22;2420;51.202;8.698;2024-03-25T02:35:08;3.20;1.00
4813;DHT22;2420;51.202;8.698;2024-03-25T02:37:36;3.20;1.00
4813;DHT22;2420;51.202;8.698;2024-03-25T02:40:02;3.10;1.00
4813;DHT22;2420;51.202;8.698;2024-03-25T02:42:31;3.20;1.00
4813;DHT22;2420;51.202;8.698;2024-03-25T02:44:57;3.20;1.00
4813;DHT22;2420;51.202;8.698;2024-03-25T02:47:24;3.00;1.00
4813;DHT22;2420;51.202;8.698;2024-03-25T02:49:50;3.10;1.00
4813;DHT22;2420;51.202;8.698;2024-03-25T02:52:15;3.20;1.00
4813;DHT22;2420;51.202;8.698;2024-03-25T02:54:41;3.10;1.00
4813;DHT22;2420;51.202;8.698;2024-03-25T02:57:06;3.10;1.00
4813;DHT22;2420;51.202;8.698;2024-03-25T02:59:32;3.10;1.00
4813;DHT22;2420;51.202;8.698;2024-03-25T03:01:57;3.10;1.00
4813;DHT22;2420;51.202;8.698;2024-03-25T03:04:23;3.20;1.00
4813;DHT22;2420;51.202;8.698;2024-03-25T03:06:49;3.00;1.00
4813;DHT22;2420;51.202;8.698;2024-03-25T03:09:14;3.10;1.00
4813;DHT22;2420;51.202;8.698;2024-03-25T03:11:40;3.10;1.00
4813;DHT22;2420;51.202;8.698;2024-03-25T03:14:06;3.00;1.00
4813;DHT22;2420;51.202;8.698;2024-03-25T03:16:31;3.20;1.00
4813;DHT22;2420;51.202;8.698;2024-03-25T03:18:57;3.10;1.00
4813;DHT22;2420;51.202;8.698;2024-03-25T03:21:22;3.00;1.00
4813;DHT22;2420;51.202;8.698;2024-03-25T03:23:48;3.10;1.00
4813;DHT22;2420;51.202;8.698;2024-03-25T03:26:13;3.00;1.00
4813;DHT22;2420;51.202;8.698;2024-03-25T03:28:40;3.10;1.00
4813;DHT22;2420;51.202;8.698;2024-03-25T03:31:06;3.20;1.00
4813;DHT22;2420;51.202;8.698;2024-03-25T03:33:31;3.20;1.00
4813;DHT22;2420;51.202;8.698;2024-03-25T03:35:57;3.20;1.00
4813;DHT22;2420;51.202;8.698;2024-03-25T03:38:22;3.20;1.00
4813;DHT22;2420;51.202;8.698;2024-03-25T03:41:01;3.10;1.00
4813;DHT22;2420;51.202;8.698;2024-03-25T03:43:27;3.10;1.00
4813;DHT22;2420;51.202;8.698;2024-03-25T03:45:53;3.10;1.00
4813;DHT22;2420;51.202;8.698;2024-03-25T03:48:18;3.20;1.00
4813;DHT22;2420;51.202;8.698;2024-03-25T03:50:44;3.20;1.00
4813;DHT22;2420;51.202;8.698;2024-03-25T03:53:10;3.10;1.00
4813;DHT22;2420;51.202;8.698;2024-03-25T03:55:35;2.70;1.00
4813;DHT22;2420;51.202;8.698;2024-03-25T03:58:01;2.90;1.00
4813;DHT22;2420;51.202;8.698;2024-03-25T04:00:27;3.00;1.00
4813;DHT22;2420;51.202;8.698;2024-03-25T04:02:53;2.80;1.00
4813;DHT22;2420;51.202;8.698;2024-03-25T04:05:18;2.80;1.00
4813;DHT22;2420;51.202;8.698;2024-03-25T04:07:44;2.80;1.00
4813;DHT22;2420;51.202;8.698;2024-03-25T04:10:10;2.90;1.00
4813;DHT22;2420;51.202;8.698;2024-03-25T04:12:36;2.80;1.00
4813;DHT22;2420;51.202;8.698;2024-03-25T04:15:03;2.90;1.00
4813;DHT22;2420;51.202;8.698;2024-03-25T04:17:28;2.80;1.00
4813;DHT22;2420;51.202;8.698;2024-03-25T04:19:54;2.80;1.00
4813;DHT22;2420;51.202;8.698;2024-03-25T04:22:19;2.90;1.00
4813;DHT22;2420;51.202;8.698;2024-03-25T04:24:45;3.00;1.00
4813;DHT22;2420;51.202;8.698;2024-03-25T04:27:11;2.70;1.00
4813;DHT22;2420;51.202;8.698;2024-03-25T04:29:36;2.80;1.00
4813;DHT22;2420;51.202;8.698;2024-03-25T04:32:02;2.80;1.00
4813;DHT22;2420;51.202;8.698;2024-03-25T04:34:29;2.80;1.00
4813;DHT22;2420;51.202;8.698;2024-03-25T04:36:55;3.00;1.00
4813;DHT22;2420;51.202;8.698;2024-03-25T04:39:21;2.90;1.00
4813;DHT22;2420;51.202;8.698;2024-03-25T04:41:47;2.90;1.00
4813;DHT22;2420;51.202;8.698;2024-03-25T04:44:13;2.90;1.00
4813;DHT22;2420;51.202;8.698;2024-03-25T04:46:39;3.00;1.00
4813;DHT22;2420;51.202;8.698;2024-03-25T04:49:04;3.00;1.00
4813;DHT22;2420;51.202;8.698;2024-03-25T04:51:30;3.10;1.00
4813;DHT22;2420;51.202;8.698;2024-03-25T04:53:57;2.80;1.00
4813;DHT22;2420;51.202;8.698;2024-03-25T04:56:22;3.00;1.00
4813;DHT22;2420;51.202;8.698;2024-03-25T04:58:48;2.90;1.00
4813;DHT22;2420;51.202;8.698;2024-03-25T05:01:13;2.80;1.00
4813;DHT22;2420;51.202;8.698;2024-03-25T05:03:39;2.90;1.00
4813;DHT22;2420;51.202;8.698;2024-03-25T05:06:05;2.70;1.00
4813;DHT22;2420;51.202;8.698;2024-03-25T05:08:31;2.60;1.00
4813;DHT22;2420;51.202;8.698;2024-03-25T05:10:56;2.80;1.00
4813;DHT22;2420;51.202;8.698;2024-03-25T05:13:22;2.80;1.00
4813;DHT22;2420;51.202;8.698;2024-03-25T05:15:51;2.60;1.00
4813;DHT22;2420;51.202;8.698;2024-03-25T05:18:18;2.40;1.00
4813;DHT22;2420;51.202;8.698;2024-03-25T05:20:43;2.50;1.00
4813;DHT22;2420;51.202;8.698;2024-03-25T05:23:09;2.70;1.00
4813;DHT22;2420;51.202;8.698;2024-03-25T05:25:35;2.50;1.00
4813;DHT22;2420;51.202;8.698;2024-03-25T05:28:01;2.60;1.00
4813;DHT22;2420;51.202;8.698;2024-03-25T05:30:26;2.40;1.00
4813;DHT22;2420;51.202;8.698;2024-03-25T05:32:52;2.60;1.00
4813;DHT22;2420;51.202;8.698;2024-03-25T05:35:18;2.40;1.00
4813;DHT22;2420;51.202;8.698;2024-03-25T05:37:43;2.50;1.00
4813;DHT22;2420;51.202;8.698;2024-03-25T05:40:09;2.60;1.00
4813;DHT22;2420;51.202;8.698;2024-03-25T05:42:37;2.60;1.00
4813;DHT22;2420;51.202;8.698;2024-03-25T05:45:03;2.60;1.00
4813;DHT22;2420;51.202;8.698;2024-03-25T05:47:29;2.60;1.00
4813;DHT22;2420;51.202;8.698;2024-03-25T05:49:54;2.80;1.00
4813;DHT22;2420;51.202;8.698;2024-03-25T05:52:20;2.70;1.00
4813;DHT22;2420;51.202;8.698;2024-03-25T05:54:45;2.70;1.00
4813;DHT22;2420;51.202;8.698;2024-03-25T05:57:11;2.60;1.00
4813;DHT22;2420;51.202;8.698;2024-03-25T05:59:37;2.80;1.00
4813;DHT22;2420;51.202;8.698;2024-03-25T06:02:02;2.80;1.00
4813;DHT22;2420;51.202;8.698;2024-03-25T06:04:28;2.50;1.00
4813;DHT22;2420;51.202;8.698;2024-03-25T06:06:53;2.70;1.00
4813;DHT22;2420;51.202;8.698;2024-03-25T06:09:19;2.80;1.00
4813;DHT22;2420;51.202;8.698;2024-03-25T06:11:44;2.60;1.00
4813;DHT22;2420;51.202;8.698;2024-03-25T06:14:10;2.80;1.00
4813;DHT22;2420;51.202;8.698;2024-03-25T06:16:35;3.00;1.00
4813;DHT22;2420;51.202;8.698;2024-03-25T06:19:01;3.00;1.00
4813;DHT22;2420;51.202;8.698;2024-03-25T06:21:26;2.90;1.00
4813;DHT22;2420;51.202;8.698;2024-03-25T06:23:53;3.10;1.00
4813;DHT22;2420;51.202;8.698;2024-03-25T06:26:21;2.90;1.00
4813;DHT22;2420;51.202;8.698;2024-03-25T06:28:47;2.80;1.00
4813;DHT22;2420;51.202;8.698;2024-03-25T06:31:13;2.70;1.00
4813;DHT22;2420;51.202;8.698;2024-03-25T06:33:57;2.90;1.00
4813;DHT22;2420;51.202;8.698;2024-03-25T06:36:44;2.80;1.00
4813;DHT22;2420;51.202;8.698;2024-03-25T06:39:10;2.80;1.00
4813;DHT22;2420;51.202;8.698;2024-03-25T06:41:36;2.70;1.00
4813;DHT22;2420;51.202;8.698;2024-03-25T06:44:02;2.90;1.00
4813;DHT22;2420;51.202;8.698;2024-03-25T06:46:27;3.00;1.00
4813;DHT22;2420;51.202;8.698;2024-03-25T06:48:53;2.80;1.00
4813;DHT22;2420;51.202;8.698;2024-03-25T06:51:19;2.80;1.00
4813;DHT22;2420;51.202;8.698;2024-03-25T06:53:44;3.10;1.00
4813;DHT22;2420;51.202;8.698;2024-03-25T06:56:10;3.10;1.00
4813;DHT22;2420;51.202;8.698;2024-03-25T06:58:35;3.00;1.00
4813;DHT22;2420;51.202;8.698;2024-03-25T07:01:05;3.00;1.00
4813;DHT22;2420;51.202;8.698;2024-03-25T07:03:33;3.30;1.00
4813;DHT22;2420;51.202;8.698;2024-03-25T07:05:58;3.00;1.00
4813;DHT22;2420;51.202;8.698;2024-03-25T07:08:26;3.30;1.00
4813;DHT22;2420;51.202;8.698;2024-03-25T07:10:51;3.00;1.00
4813;DHT22;2420;51.202;8.698;2024-03-25T07:13:18;3.30;1.00
4813;DHT22;2420;51.202;8.698;2024-03-25T07:15:44;3.20;1.00
4813;DHT22;2420;51.202;8.698;2024-03-25T07:18:10;3.30;1.00
4813;DHT22;2420;51.202;8.698;2024-03-25T07:20:41;3.60;1.00
4813;DHT22;2420;51.202;8.698;2024-03-25T07:23:07;3.50;1.00
4813;DHT22;2420;51.202;8.698;2024-03-25T07:25:32;3.30;1.00
4813;DHT22;2420;51.202;8.698;2024-03-25T07:27:58;3.20;1.00
4813;DHT22;2420;51.202;8.698;2024-03-25T07:30:23;3.10;1.00
4813;DHT22;2420;51.202;8.698;2024-03-25T07:32:53;3.30;1.00
4813;DHT22;2420;51.202;8.698;2024-03-25T07:35:19;3.40;1.00
4813;DHT22;2420;51.202;8.698;2024-03-25T07:37:44;3.50;1.00
4813;DHT22;2420;51.202;8.698;2024-03-25T07:40:10;3.50;1.00
4813;DHT22;2420;51.202;8.698;2024-03-25T07:42:37;3.70;1.00
4813;DHT22;2420;51.202;8.698;2024-03-25T07:45:04;3.70;1.00
4813;DHT22;2420;51.202;8.698;2024-03-25T07:47:31;4.00;1.00
4813;DHT22;2420;51.202;8.698;2024-03-25T07:49:57;3.70;1.00
4813;DHT22;2420;51.202;8.698;2024-03-25T07:52:24;3.80;1.00
4813;DHT22;2420;51.202;8.698;2024-03-25T07:54:50;3.90;1.00
4813;DHT22;2420;51.202;8.698;2024-03-25T07:57:16;4.10;1.00
4813;DHT22;2420;51.202;8.698;2024-03-25T07:59:42;4.30;1.00
4813;DHT22;2420;51.202;8.698;2024-03-25T08:02:07;4.50;1.00
4813;DHT22;2420;51.202;8.698;2024-03-25T08:04:33;4.50;1.00
4813;DHT22;2420;51.202;8.698;2024-03-25T08:06:58;4.60;1.00
4813;DHT22;2420;51.202;8.698;2024-03-25T08:09:24;4.50;1.00
4813;DHT22;2420;51.202;8.698;2024-03-25T08:11:49;4.80;1.00
4813;DHT22;2420;51.202;8.698;2024-03-25T08:14:15;4.90;1.00
4813;DHT22;2420;51.202;8.698;2024-03-25T08:16:41;4.80;1.00
4813;DHT22;2420;51.202;8.698;2024-03-25T08:19:06;4.90;1.00
4813;DHT22;2420;51.202;8.698;2024-03-25T08:21:32;4.90;1.00
4813;DHT22;2420;51.202;8.698;2024-03-25T08:23:57;5.00;1.00
4813;DHT22;2420;51.202;8.698;2024-03-25T08:26:23;4.60;1.00
4813;DHT22;2420;51.202;8.698;2024-03-25T08:28:48;4.70;1.00
4813;DHT22;2420;51.202;8.698;2024-03-25T08:31:14;4.80;1.00
4813;DHT22;2420;51.202;8.698;2024-03-25T08:33:40;4.80;1.00
4813;DHT22;2420;51.202;8.698;2024-03-25T08:36:06;4.70;1.00
4813;DHT22;2420;51.202;8.698;2024-03-25T08:38:31;4.70;1.00
4813;DHT22;2420;51.202;8.698;2024-03-25T08:40:57;4.90;1.00
4813;DHT22;2420;51.202;8.698;2024-03-25T08:43:22;4.70;1.00
4813;DHT22;2420;51.202;8.698;2024-03-25T08:45:48;5.00;1.00
4813;DHT22;2420;51.202;8.698;2024-03-25T08:48:13;5.30;1.00
4813;DHT22;2420;51.202;8.698;2024-03-25T08:50:39;5.50;1.00
4813;DHT22;2420;51.202;8.698;2024-03-25T08:53:05;5.70;1.00
4813;DHT22;2420;51.202;8.698;2024-03-25T08:55:30;5.90;1.00
4813;DHT22;2420;51.202;8.698;2024-03-25T08:57:57;5.80;1.00
4813;DHT22;2420;51.202;8.698;2024-03-25T09:00:26;6.00;1.00
4813;DHT22;2420;51.202;8.698;2024-03-25T09:02:55;5.90;1.00
4813;DHT22;2420;51.202;8.698;2024-03-25T09:05:21;6.10;1.00
4813;DHT22;2420;51.202;8.698;2024-03-25T09:07:50;6.20;1.00
4813;DHT22;2420;51.202;8.698;2024-03-25T09:10:20;6.30;1.00
4813;DHT22;2420;51.202;8.698;2024-03-25T09:13:04;6.20;1.00
4813;DHT22;2420;51.202;8.698;2024-03-25T09:15:30;6.00;1.00
4813;DHT22;2420;51.202;8.698;2024-03-25T09:17:56;5.80;1.00
4813;DHT22;2420;51.202;8.698;2024-03-25T09:20:22;5.90;1.00
4813;DHT22;2420;51.202;8.698;2024-03-25T09:22:47;5.90;1.00
4813;DHT22;2420;51.202;8.698;2024-03-25T09:25:17;5.70;1.00
4813;DHT22;2420;51.202;8.698;2024-03-25T09:27:47;5.30;1.00
4813;DHT22;2420;51.202;8.698;2024-03-25T09:30:13;5.80;1.00
4813;DHT22;2420;51.202;8.698;2024-03-25T09:32:39;5.80;1.00
4813;DHT22;2420;51.202;8.698;2024-03-25T09:35:05;6.00;1.00
4813;DHT22;2420;51.202;8.698;2024-03-25T09:37:31;5.90;1.00
4813;DHT22;2420;51.202;8.698;2024-03-25T09:39:57;6.10;1.00
4813;DHT22;2420;51.202;8.698;2024-03-25T09:42:30;6.10;1.00
4813;DHT22;2420;51.202;8.698;2024-03-25T09:44:57;6.20;1.00
4813;DHT22;2420;51.202;8.698;2024-03-25T09:47:23;6.10;1.00
4813;DHT22;2420;51.202;8.698;2024-03-25T09:49:49;6.00;1.00
4813;DHT22;2420;51.202;8.698;2024-03-25T09:52:15;6.10;1.00
4813;DHT22;2420;51.202;8.698;2024-03-25T09:54:41;6.10;1.00
4813;DHT22;2420;51.202;8.698;2024-03-25T09:57:08;6.20;1.00
4813;DHT22;2420;51.202;8.698;2024-03-25T09:59:34;6.20;1.00
4813;DHT22;2420;51.202;8.698;2024-03-25T10:02:01;6.40;1.00
4813;DHT22;2420;51.202;8.698;2024-03-25T10:04:27;6.40;1.00
4813;DHT22;2420;51.202;8.698;2024-03-25T10:06:52;6.40;1.00
4813;DHT22;2420;51.202;8.698;2024-03-25T10:09:22;6.20;1.00
4813;DHT22;2420;51.202;8.698;2024-03-25T10:11:50;6.50;1.00
4813;DHT22;2420;51.202;8.698;2024-03-25T10:14:16;6.30;1.00
4813;DHT22;2420;51.202;8.698;2024-03-25T10:16:43;6.20;1.00
4813;DHT22;2420;51.202;8.698;2024-03-25T10:19:09;6.20;1.00
4813;DHT22;2420;51.202;8.698;2024-03-25T10:21:35;6.10;1.00
4813;DHT22;2420;51.202;8.698;2024-03-25T10:24:00;6.30;1.00
4813;DHT22;2420;51.202;8.698;2024-03-25T10:26:30;6.40;1.00
4813;DHT22;2420;51.202;8.698;2024-03-25T10:29:05;6.70;1.00
4813;DHT22;2420;51.202;8.698;2024-03-25T10:31:32;6.80;1.00
4813;DHT22;2420;51.202;8.698;2024-03-25T10:33:58;6.80;1.00
4813;DHT22;2420;51.202;8.698;2024-03-25T10:36:24;6.90;1.00
4813;DHT22;2420;51.202;8.698;2024-03-25T10:38:57;6.90;1.00
4813;DHT22;2420;51.202;8.698;2024-03-25T10:41:25;6.80;1.00
4813;DHT22;2420;51.202;8.698;2024-03-25T10:43:52;6.80;1.00
4813;DHT22;2420;51.202;8.698;2024-03-25T10:46:21;6.90;1.00
4813;DHT22;2420;51.202;8.698;2024-03-25T10:49:18;7.10;1.00
4813;DHT22;2420;51.202;8.698;2024-03-25T10:51:50;7.60;1.00
4813;DHT22;2420;51.202;8.698;2024-03-25T10:54:16;7.90;1.00
4813;DHT22;2420;51.202;8.698;2024-03-25T10:56:43;8.00;1.00
4813;DHT22;2420;51.202;8.698;2024-03-25T10:59:10;8.20;1.00
4813;DHT22;2420;51.202;8.698;2024-03-25T11:01:37;8.30;1.00
4813;DHT22;2420;51.202;8.698;2024-03-25T11:04:02;8.10;1.00
4813;DHT22;2420;51.202;8.698;2024-03-25T11:06:31;7.90;1.00
4813;DHT22;2420;51.202;8.698;2024-03-25T11:08:57;7.80;1.00
4813;DHT22;2420;51.202;8.698;2024-03-25T11:11:23;7.80;1.00
4813;DHT22;2420;51.202;8.698;2024-03-25T11:13:49;7.80;1.00
4813;DHT22;2420;51.202;8.698;2024-03-25T11:16:26;7.70;1.00
4813;DHT22;2420;51.202;8.698;2024-03-25T11:18:54;7.70;1.00
4813;DHT22;2420;51.202;8.698;2024-03-25T11:21:25;7.60;1.00
4813;DHT22;2420;51.202;8.698;2024-03-25T11:23:50;7.70;1.00
4813;DHT22;2420;51.202;8.698;2024-03-25T11:26:26;7.50;1.00
4813;DHT22;2420;51.202;8.698;2024-03-25T11:28:56;7.50;1.00
4813;DHT22;2420;51.202;8.698;2024-03-25T11:31:21;7.30;1.00
4813;DHT22;2420;51.202;8.698;2024-03-25T11:33:50;7.40;1.00
4813;DHT22;2420;51.202;8.698;2024-03-25T11:36:15;7.40;1.00
4813;DHT22;2420;51.202;8.698;2024-03-25T11:38:43;7.80;1.00
4813;DHT22;2420;51.202;8.698;2024-03-25T11:41:10;8.20;1.00
4813;DHT22;2420;51.202;8.698;2024-03-25T11:43:36;8.50;1.00
4813;DHT22;2420;51.202;8.698;2024-03-25T11:46:02;8.80;1.00
4813;DHT22;2420;51.202;8.698;2024-03-25T11:48:29;9.00;1.00
4813;DHT22;2420;51.202;8.698;2024-03-25T11:50:55;9.30;1.00
4813;DHT22;2420;51.202;8.698;2024-03-25T11:53:20;9.40;1.00
4813;DHT22;2420;51.202;8.698;2024-03-25T11:55:49;9.40;1.00
4813;DHT22;2420;51.202;8.698;2024-03-25T11:58:15;9.50;1.00
4813;DHT22;2420;51.202;8.698;2024-03-25T12:00:47;9.50;1.00
4813;DHT22;2420;51.202;8.698;2024-03-25T12:03:17;9.60;1.00
4813;DHT22;2420;51.202;8.698;2024-03-25T12:05:46;9.70;1.00
4813;DHT22;2420;51.202;8.698;2024-03-25T12:08:12;9.80;1.00
4813;DHT22;2420;51.202;8.698;2024-03-25T12:10:38;9.80;1.00
4813;DHT22;2420;51.202;8.698;2024-03-25T12:13:23;9.70;1.00
4813;DHT22;2420;51.202;8.698;2024-03-25T12:15:50;9.50;1.00
4813;DHT22;2420;51.202;8.698;2024-03-25T12:18:16;9.50;1.00
4813;DHT22;2420;51.202;8.698;2024-03-25T12:20:44;9.40;1.00
4813;DHT22;2420;51.202;8.698;2024-03-25T12:23:10;9.30;1.00
4813;DHT22;2420;51.202;8.698;2024-03-25T12:25:35;9.60;1.00
4813;DHT22;2420;51.202;8.698;2024-03-25T12:28:01;9.60;1.00
4813;DHT22;2420;51.202;8.698;2024-03-25T12:30:27;9.70;1.00
4813;DHT22;2420;51.202;8.698;2024-03-25T12:32:54;9.80;1.00
4813;DHT22;2420;51.202;8.698;2024-03-25T12:35:20;10.00;1.00
4813;DHT22;2420;51.202;8.698;2024-03-25T12:37:46;9.90;1.00
4813;DHT22;2420;51.202;8.698;2024-03-25T12:40:28;10.00;1.00
4813;DHT22;2420;51.202;8.698;2024-03-25T12:42:55;9.80;1.00
4813;DHT22;2420;51.202;8.698;2024-03-25T12:45:21;9.40;1.00
4813;DHT22;2420;51.202;8.698;2024-03-25T12:47:48;9.20;1.00
4813;DHT22;2420;51.202;8.698;2024-03-25T12:50:14;9.10;1.00
4813;DHT22;2420;51.202;8.698;2024-03-25T12:52:39;9.10;1.00
4813;DHT22;2420;51.202;8.698;2024-03-25T12:55:05;9.20;1.00
4813;DHT22;2420;51.202;8.698;2024-03-25T12:57:30;9.50;1.00
4813;DHT22;2420;51.202;8.698;2024-03-25T12:59:56;9.40;1.00
4813;DHT22;2420;51.202;8.698;2024-03-25T13:02:21;9.50;1.00
4813;DHT22;2420;51.202;8.698;2024-03-25T13:04:47;9.60;1.00
4813;DHT22;2420;51.202;8.698;2024-03-25T13:07:12;9.70;1.00
4813;DHT22;2420;51.202;8.698;2024-03-25T13:09:38;9.50;1.00
4813;DHT22;2420;51.202;8.698;2024-03-25T13:12:04;9.50;1.00
4813;DHT22;2420;51.202;8.698;2024-03-25T13:14:30;9.60;1.00
4813;DHT22;2420;51.202;8.698;2024-03-25T13:16:55;9.60;1.00
4813;DHT22;2420;51.202;8.698;2024-03-25T13:19:21;9.70;1.00
4813;DHT22;2420;51.202;8.698;2024-03-25T13:21:46;9.80;1.00
4813;DHT22;2420;51.202;8.698;2024-03-25T13:24:13;9.60;1.00
4813;DHT22;2420;51.202;8.698;2024-03-25T13:26:39;9.50;1.00
4813;DHT22;2420;51.202;8.698;2024-03-25T13:29:04;9.60;1.00
4813;DHT22;2420;51.202;8.698;2024-03-25T13:31:30;9.80;1.00
4813;DHT22;2420;51.202;8.698;2024-03-25T13:33:56;9.70;1.00
4813;DHT22;2420;51.202;8.698;2024-03-25T13:36:21;9.70;1.00
4813;DHT22;2420;51.202;8.698;2024-03-25T13:38:47;9.70;1.00
4813;DHT22;2420;51.202;8.698;2024-03-25T13:41:12;9.80;1.00
4813;DHT22;2420;51.202;8.698;2024-03-25T13:43:42;10.00;1.00
4813;DHT22;2420;51.202;8.698;2024-03-25T13:46:08;10.00;1.00
4813;DHT22;2420;51.202;8.698;2024-03-25T13:48:34;10.00;1.00
4813;DHT22;2420;51.202;8.698;2024-03-25T13:50:59;10.10;1.00
4813;DHT22;2420;51.202;8.698;2024-03-25T13:53:25;9.90;1.00
4813;DHT22;2420;51.202;8.698;2024-03-25T13:55:51;9.90;1.00
4813;DHT22;2420;51.202;8.698;2024-03-25T13:58:16;9.80;1.00
4813;DHT22;2420;51.202;8.698;2024-03-25T14:00:42;9.80;1.00
4813;DHT22;2420;51.202;8.698;2024-03-25T14:03:07;9.80;1.00
4813;DHT22;2420;51.202;8.698;2024-03-25T14:05:33;9.70;1.00
4813;DHT22;2420;51.202;8.698;2024-03-25T14:07:58;9.70;1.00
4813;DHT22;2420;51.202;8.698;2024-03-25T14:10:24;9.70;1.00
4813;DHT22;2420;51.202;8.698;2024-03-25T14:12:49;9.70;1.00
4813;DHT22;2420;51.202;8.698;2024-03-25T14:15:15;9.70;1.00
4813;DHT22;2420;51.202;8.698;2024-03-25T14:17:41;9.60;1.00
4813;DHT22;2420;51.202;8.698;2024-03-25T14:20:07;9.70;1.00
4813;DHT22;2420;51.202;8.698;2024-03-25T14:22:34;9.80;1.00
4813;DHT22;2420;51.202;8.698;2024-03-25T14:24:59;9.80;1.00
4813;DHT22;2420;51.202;8.698;2024-03-25T14:27:25;9.80;1.00
4813;DHT22;2420;51.202;8.698;2024-03-25T14:29:51;9.80;1.00
4813;DHT22;2420;51.202;8.698;2024-03-25T14:32:21;9.60;1.00
4813;DHT22;2420;51.202;8.698;2024-03-25T14:34:47;9.50;1.00
4813;DHT22;2420;51.202;8.698;2024-03-25T14:37:14;9.20;1.00
4813;DHT22;2420;51.202;8.698;2024-03-25T16:29:19;9.20;1.00
4813;DHT22;2420;51.202;8.698;2024-03-25T16:31:44;8.40;1.00
4813;DHT22;2420;51.202;8.698;2024-03-25T16:34:10;8.40;1.00
4813;DHT22;2420;51.202;8.698;2024-03-25T16:36:37;8.30;1.00
4813;DHT22;2420;51.202;8.698;2024-03-25T16:39:04;8.30;1.00
4813;DHT22;2420;51.202;8.698;2024-03-25T16:41:30;8.30;1.00
4813;DHT22;2420;51.202;8.698;2024-03-25T16:43:55;8.20;1.00
4813;DHT22;2420;51.202;8.698;2024-03-25T16:46:21;8.20;1.00
4813;DHT22;2420;51.202;8.698;2024-03-25T16:48:46;8.10;1.00
4813;DHT22;2420;51.202;8.698;2024-03-25T16:51:12;8.10;1.00
4813;DHT22;2420;51.202;8.698;2024-03-25T16:53:37;8.00;1.00
4813;DHT22;2420;51.202;8.698;2024-03-25T16:56:03;8.00;1.00
4813;DHT22;2420;51.202;8.698;2024-03-25T16:58:31;7.90;1.00
4813;DHT22;2420;51.202;8.698;2024-03-25T17:00:56;7.80;1.00
4813;DHT22;2420;51.202;8.698;2024-03-25T17:03:22;7.80;1.00
4813;DHT22;2420;51.202;8.698;2024-03-25T17:05:50;7.70;1.00
4813;DHT22;2420;51.202;8.698;2024-03-25T17:08:16;7.80;1.00
4813;DHT22;2420;51.202;8.698;2024-03-25T17:10:41;7.80;1.00
4813;DHT22;2420;51.202;8.698;2024-03-25T17:13:07;7.70;1.00
4813;DHT22;2420;51.202;8.698;2024-03-25T17:15:32;7.70;1.00
4813;DHT22;2420;51.202;8.698;2024-03-25T17:18:11;7.60;1.00
4813;DHT22;2420;51.202;8.698;2024-03-25T17:20:37;7.50;1.00
4813;DHT22;2420;51.202;8.698;2024-03-25T17:23:03;7.50;1.00
4813;DHT22;2420;51.202;8.698;2024-03-25T17:25:29;7.40;1.00
4813;DHT22;2420;51.202;8.698;2024-03-25T17:27:59;7.40;1.00
4813;DHT22;2420;51.202;8.698;2024-03-25T17:30:25;7.30;1.00
4813;DHT22;2420;51.202;8.698;2024-03-25T17:32:50;7.20;1.00
4813;DHT22;2420;51.202;8.698;2024-03-25T17:35:16;7.10;1.00
4813;DHT22;2420;51.202;8.698;2024-03-25T17:37:41;7.00;1.00
4813;DHT22;2420;51.202;8.698;2024-03-25T17:40:08;7.00;1.00
4813;DHT22;2420;51.202;8.698;2024-03-25T17:42:37;6.90;1.00
4813;DHT22;2420;51.202;8.698;2024-03-25T17:45:03;6.80;1.00
4813;DHT22;2420;51.202;8.698;2024-03-25T17:47:29;6.60;1.00
4813;DHT22;2420;51.202;8.698;2024-03-25T17:49:54;6.60;1.00
4813;DHT22;2420;51.202;8.698;2024-03-25T17:52:20;6.60;1.00
4813;DHT22;2420;51.202;8.698;2024-03-25T17:54:46;6.50;1.00
4813;DHT22;2420;51.202;8.698;2024-03-25T17:57:12;6.50;1.00
4813;DHT22;2420;51.202;8.698;2024-03-25T17:59:38;6.50;1.00
4813;DHT22;2420;51.202;8.698;2024-03-25T18:02:03;6.50;1.00
4813;DHT22;2420;51.202;8.698;2024-03-25T18:04:29;6.40;1.00
4813;DHT22;2420;51.202;8.698;2024-03-25T18:06:54;6.30;1.00
4813;DHT22;2420;51.202;8.698;2024-03-25T18:09:21;6.20;1.00
4813;DHT22;2420;51.202;8.698;2024-03-25T18:11:47;6.20;1.00
4813;DHT22;2420;51.202;8.698;2024-03-25T18:14:12;6.00;1.00
4813;DHT22;2420;51.202;8.698;2024-03-25T18:16:38;6.00;1.00
4813;DHT22;2420;51.202;8.698;2024-03-25T18:19:03;5.70;1.00